Lennep, Montana
Current Conditions -  °F | °C
As of 2:53 AM on Friday 21 Nov 2014 (Local Time) from KLVM Reporting Station
Clear Clear  
Wind Chill: 31°   Ceiling: Unl
Heat Index: 41°   Visibility: 10mi
Dew Point: 23°   Wind: 24mph
Humidity: 49%   Direction: 240°WSW
Pressure: 29.87"   Gusts: 35mph
Location:  46.4682°N, 110.512°W
Report Text: KLVM 210953Z AUTO 24021G30KT 10SM CLR 05/M05 A2987 RMK AO2 PK WND 23036/0925 SLP114 T00501050
Loading
Personal Weather Stations






























Interactive Weather Map New forecast layout! Learn more

10-Day Weather Forecast

Advertisements
Track Severe Weather on mobile